Terminal Aerodrome Forecast
Issued by NWS Cleveland, OH

Home | Current Version | Previous Version | Text Only | Print | Product List | Glossary On
Versions: 1 2 3 4 5 6 7 8 9 10 11 12 13 14 15 16 17 18 19 20 21 22 23 24 25 26
000
FTUS41 KCLE 280500
TAFCLE
TAF
KCLE 280520Z 2806/0112 22004KT P6SM SCT200
     FM281500 19005KT P6SM BKN200
     FM282000 09005KT P6SM OVC100
     FM010400 14005KT P6SM OVC050
     FM010700 14005KT 2SM -SN OVC030=

USA.gov is the U.S. government's official web portal to all federal, state and local government web resources and services.